Terminal Aerodrome Forecast
Issued by NWS

Home | Current Version | Previous Version | Text Only | Print | Product List | Glossary On
Versions: 1 2 3 4 5 6 7 8 9 10 11 12 13 14
000
FTUS44 KEPZ 261100
TAFTCS
TAF
KTCS 261137Z 2612/2712 20009KT P6SM SCT060 BKN150
     FM261500 20015G25KT P6SM SCT060 BKN100
     FM261800 23021G31KT P6SM VCTS SCT060CB BKN100
      TEMPO 2618/2622 3SM TSRA BKN040CB
     FM270100 29015KT P6SM SCT100=

USA.gov is the U.S. government's official web portal to all federal, state and local government web resources and services.